sensor_id;sensor_type;location;lat;lon;timestamp;P1;P2;P0
70915;PMS5003;58557;50.982;-3.222;2022-09-01T00:00:28;3;3;
70915;PMS5003;58557;50.982;-3.222;2022-09-01T00:02:58;3;3;
70915;PMS5003;58557;50.982;-3.222;2022-09-01T00:05:19;4;2;
70915;PMS5003;58557;50.982;-3.222;2022-09-01T00:07:50;3;3;
70915;PMS5003;58557;50.982;-3.222;2022-09-01T00:10:15;5;2;
70915;PMS5003;58557;50.982;-3.222;2022-09-01T00:12:41;4;3;
70915;PMS5003;58557;50.982;-3.222;2022-09-01T00:15:03;4;4;
70915;PMS5003;58557;50.982;-3.222;2022-09-01T00:17:27;3;3;
70915;PMS5003;58557;50.982;-3.222;2022-09-01T00:19:53;4;3;
70915;PMS5003;58557;50.982;-3.222;2022-09-01T00:22:19;6;5;
70915;PMS5003;58557;50.982;-3.222;2022-09-01T00:24:45;2;2;
70915;PMS5003;58557;50.982;-3.222;2022-09-01T00:27:10;4;4;
70915;PMS5003;58557;50.982;-3.222;2022-09-01T00:29:41;3;3;
70915;PMS5003;58557;50.982;-3.222;2022-09-01T00:32:02;3;3;
70915;PMS5003;58557;50.982;-3.222;2022-09-01T00:34:27;6;3;
70915;PMS5003;58557;50.982;-3.222;2022-09-01T00:36:53;3;3;
70915;PMS5003;58557;50.982;-3.222;2022-09-01T00:39:24;2;2;
70915;PMS5003;58557;50.982;-3.222;2022-09-01T00:41:44;6;6;
70915;PMS5003;58557;50.982;-3.222;2022-09-01T00:44:11;4;4;
70915;PMS5003;58557;50.982;-3.222;2022-09-01T00:46:39;5;3;
70915;PMS5003;58557;50.982;-3.222;2022-09-01T00:49:05;3;3;
70915;PMS5003;58557;50.982;-3.222;2022-09-01T00:51:29;4;3;
70915;PMS5003;58557;50.982;-3.222;2022-09-01T00:53:53;5;5;
70915;PMS5003;58557;50.982;-3.222;2022-09-01T00:56:24;5;4;
70915;PMS5003;58557;50.982;-3.222;2022-09-01T00:58:45;3;3;
70915;PMS5003;58557;50.982;-3.222;2022-09-01T01:01:15;3;3;
70915;PMS5003;58557;50.982;-3.222;2022-09-01T01:03:41;4;3;
70915;PMS5003;58557;50.982;-3.222;2022-09-01T01:06:03;3;3;
70915;PMS5003;58557;50.982;-3.222;2022-09-01T01:08:29;4;4;
70915;PMS5003;58557;50.982;-3.222;2022-09-01T01:10:53;5;5;
70915;PMS5003;58557;50.982;-3.222;2022-09-01T01:13:24;4;4;
70915;PMS5003;58557;50.982;-3.222;2022-09-01T01:15:44;3;3;
70915;PMS5003;58557;50.982;-3.222;2022-09-01T01:18:15;6;4;
70915;PMS5003;58557;50.982;-3.222;2022-09-01T01:20:41;5;5;
70915;PMS5003;58557;50.982;-3.222;2022-09-01T01:23:03;6;5;
70915;PMS5003;58557;50.982;-3.222;2022-09-01T01:25:27;3;3;
70915;PMS5003;58557;50.982;-3.222;2022-09-01T01:30:18;6;5;
70915;PMS5003;58557;50.982;-3.222;2022-09-01T01:32:44;3;3;
70915;PMS5003;58557;50.982;-3.222;2022-09-01T01:35:10;4;4;
70915;PMS5003;58557;50.982;-3.222;2022-09-01T01:37:35;3;3;
70915;PMS5003;58557;50.982;-3.222;2022-09-01T01:40:01;3;3;
70915;PMS5003;58557;50.982;-3.222;2022-09-01T01:42:31;5;4;
70915;PMS5003;58557;50.982;-3.222;2022-09-01T01:44:57;5;4;
70915;PMS5003;58557;50.982;-3.222;2022-09-01T01:47:23;3;3;
70915;PMS5003;58557;50.982;-3.222;2022-09-01T01:49:44;4;3;
70915;PMS5003;58557;50.982;-3.222;2022-09-01T01:52:14;5;5;
70915;PMS5003;58557;50.982;-3.222;2022-09-01T01:54:40;4;2;
70915;PMS5003;58557;50.982;-3.222;2022-09-01T01:57:01;5;4;
70915;PMS5003;58557;50.982;-3.222;2022-09-01T01:59:27;3;3;
70915;PMS5003;58557;50.982;-3.222;2022-09-01T02:01:52;6;5;
70915;PMS5003;58557;50.982;-3.222;2022-09-01T02:04:18;4;4;
70915;PMS5003;58557;50.982;-3.222;2022-09-01T02:06:44;6;5;
70915;PMS5003;58557;50.982;-3.222;2022-09-01T02:09:10;5;4;
70915;PMS5003;58557;50.982;-3.222;2022-09-01T02:11:35;4;4;
70915;PMS5003;58557;50.982;-3.222;2022-09-01T02:14:01;5;5;
70915;PMS5003;58557;50.982;-3.222;2022-09-01T02:16:32;4;3;
70915;PMS5003;58557;50.982;-3.222;2022-09-01T02:18:58;6;6;
70915;PMS5003;58557;50.982;-3.222;2022-09-01T02:21:19;3;3;
70915;PMS5003;58557;50.982;-3.222;2022-09-01T02:23:45;5;5;
70915;PMS5003;58557;50.982;-3.222;2022-09-01T02:26:15;5;5;
70915;PMS5003;58557;50.982;-3.222;2022-09-01T02:28:36;4;4;
70915;PMS5003;58557;50.982;-3.222;2022-09-01T02:31:01;4;4;
70915;PMS5003;58557;50.982;-3.222;2022-09-01T02:33:32;3;3;
70915;PMS5003;58557;50.982;-3.222;2022-09-01T02:35:53;7;5;
70915;PMS5003;58557;50.982;-3.222;2022-09-01T02:38:23;4;4;
70915;PMS5003;58557;50.982;-3.222;2022-09-01T02:40:49;5;5;
70915;PMS5003;58557;50.982;-3.222;2022-09-01T02:43:10;5;3;
70915;PMS5003;58557;50.982;-3.222;2022-09-01T02:45:37;3;3;
70915;PMS5003;58557;50.982;-3.222;2022-09-01T02:48:01;3;3;
70915;PMS5003;58557;50.982;-3.222;2022-09-01T02:50:26;4;4;
70915;PMS5003;58557;50.982;-3.222;2022-09-01T02:52:57;6;4;
70915;PMS5003;58557;50.982;-3.222;2022-09-01T02:55:23;6;4;
70915;PMS5003;58557;50.982;-3.222;2022-09-01T02:57:49;7;6;
70915;PMS5003;58557;50.982;-3.222;2022-09-01T03:00:10;8;5;
70915;PMS5003;58557;50.982;-3.222;2022-09-01T03:02:35;4;4;
70915;PMS5003;58557;50.982;-3.222;2022-09-01T03:05:06;4;3;
70915;PMS5003;58557;50.982;-3.222;2022-09-01T03:07:26;3;3;
70915;PMS5003;58557;50.982;-3.222;2022-09-01T03:09:57;4;3;
70915;PMS5003;58557;50.982;-3.222;2022-09-01T03:12:18;5;4;
70915;PMS5003;58557;50.982;-3.222;2022-09-01T03:14:44;5;5;
70915;PMS5003;58557;50.982;-3.222;2022-09-01T03:17:10;5;4;
70915;PMS5003;58557;50.982;-3.222;2022-09-01T03:19:35;3;3;
70915;PMS5003;58557;50.982;-3.222;2022-09-01T03:22:01;6;6;
70915;PMS5003;58557;50.982;-3.222;2022-09-01T03:24:26;5;4;
70915;PMS5003;58557;50.982;-3.222;2022-09-01T03:26:52;3;3;
70915;PMS5003;58557;50.982;-3.222;2022-09-01T03:29:18;4;4;
70915;PMS5003;58557;50.982;-3.222;2022-09-01T03:31:44;5;4;
70915;PMS5003;58557;50.982;-3.222;2022-09-01T03:34:09;4;4;
70915;PMS5003;58557;50.982;-3.222;2022-09-01T03:36:36;4;4;
70915;PMS5003;58557;50.982;-3.222;2022-09-01T03:39:06;3;3;
70915;PMS5003;58557;50.982;-3.222;2022-09-01T03:41:27;5;4;
70915;PMS5003;58557;50.982;-3.222;2022-09-01T03:43:57;8;5;
70915;PMS5003;58557;50.982;-3.222;2022-09-01T03:46:23;4;4;
70915;PMS5003;58557;50.982;-3.222;2022-09-01T03:48:44;7;3;
70915;PMS5003;58557;50.982;-3.222;2022-09-01T03:51:15;5;4;
70915;PMS5003;58557;50.982;-3.222;2022-09-01T03:53:36;4;2;
70915;PMS5003;58557;50.982;-3.222;2022-09-01T03:56:06;5;3;
70915;PMS5003;58557;50.982;-3.222;2022-09-01T03:58:32;5;4;
70915;PMS5003;58557;50.982;-3.222;2022-09-01T04:00:57;10;5;
70915;PMS5003;58557;50.982;-3.222;2022-09-01T04:03:24;7;6;
70915;PMS5003;58557;50.982;-3.222;2022-09-01T04:05:43;4;4;
70915;PMS5003;58557;50.982;-3.222;2022-09-01T04:08:14;4;4;
70915;PMS5003;58557;50.982;-3.222;2022-09-01T04:10:35;11;9;
70915;PMS5003;58557;50.982;-3.222;2022-09-01T04:13:00;4;3;
70915;PMS5003;58557;50.982;-3.222;2022-09-01T04:15:26;7;6;
70915;PMS5003;58557;50.982;-3.222;2022-09-01T04:17:52;4;4;
70915;PMS5003;58557;50.982;-3.222;2022-09-01T04:20:18;4;3;
70915;PMS5003;58557;50.982;-3.222;2022-09-01T04:22:48;4;4;
70915;PMS5003;58557;50.982;-3.222;2022-09-01T04:25:09;4;4;
70915;PMS5003;58557;50.982;-3.222;2022-09-01T04:27:35;3;3;
70915;PMS5003;58557;50.982;-3.222;2022-09-01T04:30:00;5;5;
70915;PMS5003;58557;50.982;-3.222;2022-09-01T04:32:26;6;6;
70915;PMS5003;58557;50.982;-3.222;2022-09-01T04:34:53;5;4;
70915;PMS5003;58557;50.982;-3.222;2022-09-01T04:37:18;4;4;
70915;PMS5003;58557;50.982;-3.222;2022-09-01T04:39:48;6;6;
70915;PMS5003;58557;50.982;-3.222;2022-09-01T04:42:14;4;3;
70915;PMS5003;58557;50.982;-3.222;2022-09-01T04:44:35;7;7;
70915;PMS5003;58557;50.982;-3.222;2022-09-01T04:47:00;4;4;
70915;PMS5003;58557;50.982;-3.222;2022-09-01T04:49:30;8;7;
70915;PMS5003;58557;50.982;-3.222;2022-09-01T04:51:56;5;4;
70915;PMS5003;58557;50.982;-3.222;2022-09-01T04:54:18;5;5;
70915;PMS5003;58557;50.982;-3.222;2022-09-01T04:56:44;3;3;
70915;PMS5003;58557;50.982;-3.222;2022-09-01T04:59:09;4;4;
70915;PMS5003;58557;50.982;-3.222;2022-09-01T05:01:34;6;4;
70915;PMS5003;58557;50.982;-3.222;2022-09-01T05:04:00;7;6;
70915;PMS5003;58557;50.982;-3.222;2022-09-01T05:06:26;4;3;
70915;PMS5003;58557;50.982;-3.222;2022-09-01T05:08:56;6;5;
70915;PMS5003;58557;50.982;-3.222;2022-09-01T05:11:17;3;3;
70915;PMS5003;58557;50.982;-3.222;2022-09-01T05:13:48;5;5;
70915;PMS5003;58557;50.982;-3.222;2022-09-01T05:16:14;5;5;
70915;PMS5003;58557;50.982;-3.222;2022-09-01T05:18:34;6;6;
70915;PMS5003;58557;50.982;-3.222;2022-09-01T05:21:03;8;8;
70915;PMS5003;58557;50.982;-3.222;2022-09-01T05:23:26;6;6;
70915;PMS5003;58557;50.982;-3.222;2022-09-01T05:25:56;5;5;
70915;PMS5003;58557;50.982;-3.222;2022-09-01T05:28:18;4;4;
70915;PMS5003;58557;50.982;-3.222;2022-09-01T05:30:43;7;5;
70915;PMS5003;58557;50.982;-3.222;2022-09-01T05:33:09;7;4;
70915;PMS5003;58557;50.982;-3.222;2022-09-01T05:35:40;6;6;
70915;PMS5003;58557;50.982;-3.222;2022-09-01T05:38:00;7;5;
70915;PMS5003;58557;50.982;-3.222;2022-09-01T05:40:30;6;4;
70915;PMS5003;58557;50.982;-3.222;2022-09-01T05:42:56;9;4;
70915;PMS5003;58557;50.982;-3.222;2022-09-01T05:45:17;8;8;
70915;PMS5003;58557;50.982;-3.222;2022-09-01T05:47:43;3;3;
70915;PMS5003;58557;50.982;-3.222;2022-09-01T05:50:13;6;5;
70915;PMS5003;58557;50.982;-3.222;2022-09-01T05:52:35;5;5;
70915;PMS5003;58557;50.982;-3.222;2022-09-01T05:55:00;7;5;
70915;PMS5003;58557;50.982;-3.222;2022-09-01T05:57:25;6;6;
70915;PMS5003;58557;50.982;-3.222;2022-09-01T05:59:52;12;12;
70915;PMS5003;58557;50.982;-3.222;2022-09-01T06:02:16;5;5;
70915;PMS5003;58557;50.982;-3.222;2022-09-01T06:04:42;5;5;
70915;PMS5003;58557;50.982;-3.222;2022-09-01T06:07:10;8;8;
70915;PMS5003;58557;50.982;-3.222;2022-09-01T06:09:39;6;6;
70915;PMS5003;58557;50.982;-3.222;2022-09-01T06:12:04;6;6;
70915;PMS5003;58557;50.982;-3.222;2022-09-01T06:14:25;10;9;
70915;PMS5003;58557;50.982;-3.222;2022-09-01T06:16:50;9;9;
70915;PMS5003;58557;50.982;-3.222;2022-09-01T06:19:21;8;6;
70915;PMS5003;58557;50.982;-3.222;2022-09-01T06:21:41;7;6;
70915;PMS5003;58557;50.982;-3.222;2022-09-01T06:24:07;4;4;
70915;PMS5003;58557;50.982;-3.222;2022-09-01T06:26:34;7;7;
70915;PMS5003;58557;50.982;-3.222;2022-09-01T06:28:59;6;5;
70915;PMS5003;58557;50.982;-3.222;2022-09-01T06:31:25;8;6;
70915;PMS5003;58557;50.982;-3.222;2022-09-01T06:33:50;6;6;
70915;PMS5003;58557;50.982;-3.222;2022-09-01T06:36:15;12;12;
70915;PMS5003;58557;50.982;-3.222;2022-09-01T06:38:45;5;5;
70915;PMS5003;58557;50.982;-3.222;2022-09-01T06:41:08;7;7;
70915;PMS5003;58557;50.982;-3.222;2022-09-01T06:43:31;6;6;
70915;PMS5003;58557;50.982;-3.222;2022-09-01T06:46:02;5;5;
70915;PMS5003;58557;50.982;-3.222;2022-09-01T06:48:23;7;4;
70915;PMS5003;58557;50.982;-3.222;2022-09-01T06:50:48;7;6;
70915;PMS5003;58557;50.982;-3.222;2022-09-01T06:53:14;5;5;
70915;PMS5003;58557;50.982;-3.222;2022-09-01T06:55:41;7;6;
70915;PMS5003;58557;50.982;-3.222;2022-09-01T06:58:10;7;7;
70915;PMS5003;58557;50.982;-3.222;2022-09-01T07:00:31;7;4;
70915;PMS5003;58557;50.982;-3.222;2022-09-01T07:02:57;5;5;
70915;PMS5003;58557;50.982;-3.222;2022-09-01T07:05:23;6;6;
70915;PMS5003;58557;50.982;-3.222;2022-09-01T07:07:48;5;5;
70915;PMS5003;58557;50.982;-3.222;2022-09-01T07:10:19;5;5;
70915;PMS5003;58557;50.982;-3.222;2022-09-01T07:12:44;6;6;
70915;PMS5003;58557;50.982;-3.222;2022-09-01T07:15:05;6;6;
70915;PMS5003;58557;50.982;-3.222;2022-09-01T07:17:31;6;6;
70915;PMS5003;58557;50.982;-3.222;2022-09-01T07:19:56;5;4;
70915;PMS5003;58557;50.982;-3.222;2022-09-01T07:22:27;7;6;
70915;PMS5003;58557;50.982;-3.222;2022-09-01T07:24:53;7;5;
70915;PMS5003;58557;50.982;-3.222;2022-09-01T07:27:13;6;6;
70915;PMS5003;58557;50.982;-3.222;2022-09-01T07:29:40;7;7;
70915;PMS5003;58557;50.982;-3.222;2022-09-01T07:32:05;5;5;
70915;PMS5003;58557;50.982;-3.222;2022-09-01T07:34:31;7;6;
70915;PMS5003;58557;50.982;-3.222;2022-09-01T07:36:56;7;7;
70915;PMS5003;58557;50.982;-3.222;2022-09-01T07:39:22;8;7;
70915;PMS5003;58557;50.982;-3.222;2022-09-01T07:41:52;6;6;
70915;PMS5003;58557;50.982;-3.222;2022-09-01T07:44:18;10;8;
70915;PMS5003;58557;50.982;-3.222;2022-09-01T07:46:38;8;8;
70915;PMS5003;58557;50.982;-3.222;2022-09-01T07:49:04;7;6;
70915;PMS5003;58557;50.982;-3.222;2022-09-01T07:51:30;7;5;
70915;PMS5003;58557;50.982;-3.222;2022-09-01T07:54:00;6;5;
70915;PMS5003;58557;50.982;-3.222;2022-09-01T07:56:23;10;9;
70915;PMS5003;58557;50.982;-3.222;2022-09-01T07:58:51;8;8;
70915;PMS5003;58557;50.982;-3.222;2022-09-01T08:01:13;9;8;
70915;PMS5003;58557;50.982;-3.222;2022-09-01T08:03:37;11;7;
70915;PMS5003;58557;50.982;-3.222;2022-09-01T08:06:09;9;8;
70915;PMS5003;58557;50.982;-3.222;2022-09-01T08:08:29;8;7;
70915;PMS5003;58557;50.982;-3.222;2022-09-01T08:10:54;11;10;
70915;PMS5003;58557;50.982;-3.222;2022-09-01T08:13:20;11;11;
70915;PMS5003;58557;50.982;-3.222;2022-09-01T08:15:45;13;10;
70915;PMS5003;58557;50.982;-3.222;2022-09-01T08:18:15;13;13;
70915;PMS5003;58557;50.982;-3.222;2022-09-01T08:20:41;15;15;
70915;PMS5003;58557;50.982;-3.222;2022-09-01T08:23:01;13;9;
70915;PMS5003;58557;50.982;-3.222;2022-09-01T08:25:32;17;14;
70915;PMS5003;58557;50.982;-3.222;2022-09-01T08:27:52;12;11;
70915;PMS5003;58557;50.982;-3.222;2022-09-01T08:30:18;11;8;
70915;PMS5003;58557;50.982;-3.222;2022-09-01T08:32:43;11;10;
70915;PMS5003;58557;50.982;-3.222;2022-09-01T08:35:10;11;10;
70915;PMS5003;58557;50.982;-3.222;2022-09-01T08:37:39;8;8;
70915;PMS5003;58557;50.982;-3.222;2022-09-01T08:40:05;12;10;
70915;PMS5003;58557;50.982;-3.222;2022-09-01T08:42:30;13;9;
70915;PMS5003;58557;50.982;-3.222;2022-09-01T08:44:52;14;12;
70915;PMS5003;58557;50.982;-3.222;2022-09-01T08:47:16;12;9;
70915;PMS5003;58557;50.982;-3.222;2022-09-01T08:49:46;8;8;
70915;PMS5003;58557;50.982;-3.222;2022-09-01T08:52:10;13;9;
70915;PMS5003;58557;50.982;-3.222;2022-09-01T08:54:34;11;11;
70915;PMS5003;58557;50.982;-3.222;2022-09-01T08:56:59;18;15;
70915;PMS5003;58557;50.982;-3.222;2022-09-01T08:59:23;15;12;
70915;PMS5003;58557;50.982;-3.222;2022-09-01T09:01:57;13;12;
70915;PMS5003;58557;50.982;-3.222;2022-09-01T09:04:25;11;10;
70915;PMS5003;58557;50.982;-3.222;2022-09-01T09:06:42;10;9;
70915;PMS5003;58557;50.982;-3.222;2022-09-01T09:09:07;11;9;
70915;PMS5003;58557;50.982;-3.222;2022-09-01T09:11:40;11;11;
70915;PMS5003;58557;50.982;-3.222;2022-09-01T09:14:03;11;11;
70915;PMS5003;58557;50.982;-3.222;2022-09-01T09:16:23;14;14;
70915;PMS5003;58557;50.982;-3.222;2022-09-01T09:18:49;12;11;
70915;PMS5003;58557;50.982;-3.222;2022-09-01T09:21:15;9;9;
70915;PMS5003;58557;50.982;-3.222;2022-09-01T09:23:40;10;8;
70915;PMS5003;58557;50.982;-3.222;2022-09-01T09:26:05;13;10;
70915;PMS5003;58557;50.982;-3.222;2022-09-01T09:28:30;14;10;
70915;PMS5003;58557;50.982;-3.222;2022-09-01T09:35:47;8;8;
70915;PMS5003;58557;50.982;-3.222;2022-09-01T09:38:15;12;12;
70915;PMS5003;58557;50.982;-3.222;2022-09-01T09:40:38;12;12;
70915;PMS5003;58557;50.982;-3.222;2022-09-01T09:43:10;12;11;
70915;PMS5003;58557;50.982;-3.222;2022-09-01T09:45:30;12;9;
70915;PMS5003;58557;50.982;-3.222;2022-09-01T09:48:05;13;11;
70915;PMS5003;58557;50.982;-3.222;2022-09-01T09:50:23;13;12;
70915;PMS5003;58557;50.982;-3.222;2022-09-01T09:52:47;10;10;
70915;PMS5003;58557;50.982;-3.222;2022-09-01T09:55:20;11;10;
70915;PMS5003;58557;50.982;-3.222;2022-09-01T09:57:38;13;11;
70915;PMS5003;58557;50.982;-3.222;2022-09-01T10:00:06;10;8;
70915;PMS5003;58557;50.982;-3.222;2022-09-01T10:02:30;10;10;
70915;PMS5003;58557;50.982;-3.222;2022-09-01T10:04:56;15;13;
70915;PMS5003;58557;50.982;-3.222;2022-09-01T10:07:27;10;10;
70915;PMS5003;58557;50.982;-3.222;2022-09-01T10:09:46;13;11;
70915;PMS5003;58557;50.982;-3.222;2022-09-01T10:12:16;10;10;
70915;PMS5003;58557;50.982;-3.222;2022-09-01T10:14:44;12;10;
70915;PMS5003;58557;50.982;-3.222;2022-09-01T10:17:05;12;9;
70915;PMS5003;58557;50.982;-3.222;2022-09-01T10:19:33;11;10;
70915;PMS5003;58557;50.982;-3.222;2022-09-01T10:21:54;12;12;
70915;PMS5003;58557;50.982;-3.222;2022-09-01T10:24:22;11;11;
70915;PMS5003;58557;50.982;-3.222;2022-09-01T10:26:46;12;12;
70915;PMS5003;58557;50.982;-3.222;2022-09-01T10:29:12;11;11;
70915;PMS5003;58557;50.982;-3.222;2022-09-01T10:31:41;13;13;
70915;PMS5003;58557;50.982;-3.222;2022-09-01T10:34:02;9;9;
70915;PMS5003;58557;50.982;-3.222;2022-09-01T10:36:28;12;11;
70915;PMS5003;58557;50.982;-3.222;2022-09-01T10:38:53;13;10;
70915;PMS5003;58557;50.982;-3.222;2022-09-01T10:43:44;10;10;
70915;PMS5003;58557;50.982;-3.222;2022-09-01T10:48:35;10;10;
70915;PMS5003;58557;50.982;-3.222;2022-09-01T10:53:36;15;13;
70915;PMS5003;58557;50.982;-3.222;2022-09-01T10:58:20;16;15;
70915;PMS5003;58557;50.982;-3.222;2022-09-01T11:00:47;10;10;
70915;PMS5003;58557;50.982;-3.222;2022-09-01T11:07:59;9;9;
70915;PMS5003;58557;50.982;-3.222;2022-09-01T11:20:07;12;10;
70915;PMS5003;58557;50.982;-3.222;2022-09-01T11:22:35;8;8;
70915;PMS5003;58557;50.982;-3.222;2022-09-01T11:25:06;8;8;
70915;PMS5003;58557;50.982;-3.222;2022-09-01T11:29:50;10;9;
70915;PMS5003;58557;50.982;-3.222;2022-09-01T11:32:14;9;9;
70915;PMS5003;58557;50.982;-3.222;2022-09-01T11:34:41;14;13;
70915;PMS5003;58557;50.982;-3.222;2022-09-01T11:37:11;9;8;
70915;PMS5003;58557;50.982;-3.222;2022-09-01T11:39:32;12;9;
70915;PMS5003;58557;50.982;-3.222;2022-09-01T11:42:02;13;12;
70915;PMS5003;58557;50.982;-3.222;2022-09-01T11:44:24;9;8;
70915;PMS5003;58557;50.982;-3.222;2022-09-01T11:46:54;14;10;
70915;PMS5003;58557;50.982;-3.222;2022-09-01T11:51:42;8;8;
70915;PMS5003;58557;50.982;-3.222;2022-09-01T11:54:04;10;10;
70915;PMS5003;58557;50.982;-3.222;2022-09-01T11:56:30;11;10;
70915;PMS5003;58557;50.982;-3.222;2022-09-01T11:59:00;12;12;
70915;PMS5003;58557;50.982;-3.222;2022-09-01T12:03:46;9;9;
70915;PMS5003;58557;50.982;-3.222;2022-09-01T12:06:12;14;10;
70915;PMS5003;58557;50.982;-3.222;2022-09-01T12:08:37;11;10;
70915;PMS5003;58557;50.982;-3.222;2022-09-01T12:11:08;9;9;
70915;PMS5003;58557;50.982;-3.222;2022-09-01T12:13:33;8;7;
70915;PMS5003;58557;50.982;-3.222;2022-09-01T12:15:55;10;9;
70915;PMS5003;58557;50.982;-3.222;2022-09-01T12:18:20;10;8;
70915;PMS5003;58557;50.982;-3.222;2022-09-01T12:20:45;9;9;
70915;PMS5003;58557;50.982;-3.222;2022-09-01T12:23:16;12;12;
70915;PMS5003;58557;50.982;-3.222;2022-09-01T12:25:36;10;10;
70915;PMS5003;58557;50.982;-3.222;2022-09-01T12:28:02;11;10;
70915;PMS5003;58557;50.982;-3.222;2022-09-01T12:30:26;7;7;
70915;PMS5003;58557;50.982;-3.222;2022-09-01T12:32:57;7;7;
70915;PMS5003;58557;50.982;-3.222;2022-09-01T12:35:19;7;7;
70915;PMS5003;58557;50.982;-3.222;2022-09-01T12:37:43;10;9;
70915;PMS5003;58557;50.982;-3.222;2022-09-01T12:42:34;12;11;
70915;PMS5003;58557;50.982;-3.222;2022-09-01T12:45:00;8;8;
70915;PMS5003;58557;50.982;-3.222;2022-09-01T12:49:56;7;7;
70915;PMS5003;58557;50.982;-3.222;2022-09-01T12:52:22;9;9;
70915;PMS5003;58557;50.982;-3.222;2022-09-01T12:54:41;8;8;
70915;PMS5003;58557;50.982;-3.222;2022-09-01T12:57:07;9;7;
70915;PMS5003;58557;50.982;-3.222;2022-09-01T12:59:38;7;7;
70915;PMS5003;58557;50.982;-3.222;2022-09-01T13:04:25;8;7;
70915;PMS5003;58557;50.982;-3.222;2022-09-01T13:06:55;11;10;
70915;PMS5003;58557;50.982;-3.222;2022-09-01T13:09:14;11;9;
70915;PMS5003;58557;50.982;-3.222;2022-09-01T13:11:40;9;8;
70915;PMS5003;58557;50.982;-3.222;2022-09-01T13:14:05;8;8;
70915;PMS5003;58557;50.982;-3.222;2022-09-01T13:16:36;8;8;
70915;PMS5003;58557;50.982;-3.222;2022-09-01T13:19:02;8;8;
70915;PMS5003;58557;50.982;-3.222;2022-09-01T13:21:27;7;5;
70915;PMS5003;58557;50.982;-3.222;2022-09-01T13:23:47;11;9;
70915;PMS5003;58557;50.982;-3.222;2022-09-01T13:26:13;8;6;
70915;PMS5003;58557;50.982;-3.222;2022-09-01T13:28:38;7;7;
70915;PMS5003;58557;50.982;-3.222;2022-09-01T13:31:04;6;6;
70915;PMS5003;58557;50.982;-3.222;2022-09-01T13:33:30;8;6;
70915;PMS5003;58557;50.982;-3.222;2022-09-01T13:35:55;6;6;
70915;PMS5003;58557;50.982;-3.222;2022-09-01T13:38:25;7;7;
70915;PMS5003;58557;50.982;-3.222;2022-09-01T13:40:46;8;7;
70915;PMS5003;58557;50.982;-3.222;2022-09-01T13:43:11;11;8;
70915;PMS5003;58557;50.982;-3.222;2022-09-01T13:45:37;8;7;
70915;PMS5003;58557;50.982;-3.222;2022-09-01T13:48:08;9;8;
70915;PMS5003;58557;50.982;-3.222;2022-09-01T13:50:29;7;7;
70915;PMS5003;58557;50.982;-3.222;2022-09-01T13:52:59;7;7;
70915;PMS5003;58557;50.982;-3.222;2022-09-01T13:55:20;9;7;
70915;PMS5003;58557;50.982;-3.222;2022-09-01T13:57:50;8;7;
70915;PMS5003;58557;50.982;-3.222;2022-09-01T14:00:11;7;6;
70915;PMS5003;58557;50.982;-3.222;2022-09-01T14:02:36;8;7;
70915;PMS5003;58557;50.982;-3.222;2022-09-01T14:05:01;6;6;
70915;PMS5003;58557;50.982;-3.222;2022-09-01T14:07:32;7;6;
70915;PMS5003;58557;50.982;-3.222;2022-09-01T14:09:52;9;9;
70915;PMS5003;58557;50.982;-3.222;2022-09-01T14:12:22;12;9;
70915;PMS5003;58557;50.982;-3.222;2022-09-01T14:14:43;7;7;
70915;PMS5003;58557;50.982;-3.222;2022-09-01T14:17:08;8;8;
70915;PMS5003;58557;50.982;-3.222;2022-09-01T14:19:39;10;8;
70915;PMS5003;58557;50.982;-3.222;2022-09-01T14:21:59;14;9;
70915;PMS5003;58557;50.982;-3.222;2022-09-01T14:24:25;10;10;
70915;PMS5003;58557;50.982;-3.222;2022-09-01T14:26:52;7;7;
70915;PMS5003;58557;50.982;-3.222;2022-09-01T14:29:16;9;8;
70915;PMS5003;58557;50.982;-3.222;2022-09-01T14:31:42;7;7;
70915;PMS5003;58557;50.982;-3.222;2022-09-01T14:34:12;8;8;
70915;PMS5003;58557;50.982;-3.222;2022-09-01T14:36:33;7;6;
70915;PMS5003;58557;50.982;-3.222;2022-09-01T14:38:59;11;8;
70915;PMS5003;58557;50.982;-3.222;2022-09-01T14:41:24;6;6;
70915;PMS5003;58557;50.982;-3.222;2022-09-01T14:43:50;6;5;
70915;PMS5003;58557;50.982;-3.222;2022-09-01T14:46:20;7;7;
70915;PMS5003;58557;50.982;-3.222;2022-09-01T14:48:46;8;8;
70915;PMS5003;58557;50.982;-3.222;2022-09-01T14:51:07;7;7;
70915;PMS5003;58557;50.982;-3.222;2022-09-01T14:53:31;7;7;
70915;PMS5003;58557;50.982;-3.222;2022-09-01T14:56:02;6;5;
70915;PMS5003;58557;50.982;-3.222;2022-09-01T14:58:27;5;5;
70915;PMS5003;58557;50.982;-3.222;2022-09-01T15:00:53;5;5;
70915;PMS5003;58557;50.982;-3.222;2022-09-01T15:03:13;9;8;
70915;PMS5003;58557;50.982;-3.222;2022-09-01T15:05:38;10;10;
70915;PMS5003;58557;50.982;-3.222;2022-09-01T15:08:04;5;5;
70915;PMS5003;58557;50.982;-3.222;2022-09-01T15:10:29;8;8;
70915;PMS5003;58557;50.982;-3.222;2022-09-01T15:12:56;10;8;
70915;PMS5003;58557;50.982;-3.222;2022-09-01T15:15:26;7;7;
70915;PMS5003;58557;50.982;-3.222;2022-09-01T15:17:48;9;9;
70915;PMS5003;58557;50.982;-3.222;2022-09-01T15:20:16;7;7;
70915;PMS5003;58557;50.982;-3.222;2022-09-01T15:22:37;10;8;
70915;PMS5003;58557;50.982;-3.222;2022-09-01T15:25:02;8;8;
70915;PMS5003;58557;50.982;-3.222;2022-09-01T15:27:27;9;7;
70915;PMS5003;58557;50.982;-3.222;2022-09-01T15:29:53;8;8;
70915;PMS5003;58557;50.982;-3.222;2022-09-01T15:32:19;9;8;
70915;PMS5003;58557;50.982;-3.222;2022-09-01T15:34:44;7;6;
70915;PMS5003;58557;50.982;-3.222;2022-09-01T15:37:09;10;9;
70915;PMS5003;58557;50.982;-3.222;2022-09-01T15:39:40;8;8;
70915;PMS5003;58557;50.982;-3.222;2022-09-01T15:42:01;8;7;
70915;PMS5003;58557;50.982;-3.222;2022-09-01T15:44:26;9;7;
70915;PMS5003;58557;50.982;-3.222;2022-09-01T15:46:57;7;7;
70915;PMS5003;58557;50.982;-3.222;2022-09-01T15:49:22;7;7;
70915;PMS5003;58557;50.982;-3.222;2022-09-01T15:51:48;8;6;
70915;PMS5003;58557;50.982;-3.222;2022-09-01T15:54:09;7;7;
70915;PMS5003;58557;50.982;-3.222;2022-09-01T15:56:35;8;8;
70915;PMS5003;58557;50.982;-3.222;2022-09-01T15:59:05;11;11;
70915;PMS5003;58557;50.982;-3.222;2022-09-01T16:01:25;9;8;
70915;PMS5003;58557;50.982;-3.222;2022-09-01T16:03:55;12;12;
70915;PMS5003;58557;50.982;-3.222;2022-09-01T16:06:16;9;8;
70915;PMS5003;58557;50.982;-3.222;2022-09-01T16:08:46;10;10;
70915;PMS5003;58557;50.982;-3.222;2022-09-01T16:11:09;15;15;
70915;PMS5003;58557;50.982;-3.222;2022-09-01T16:13:37;9;9;
70915;PMS5003;58557;50.982;-3.222;2022-09-01T16:16:05;13;11;
70915;PMS5003;58557;50.982;-3.222;2022-09-01T16:18:28;9;9;
70915;PMS5003;58557;50.982;-3.222;2022-09-01T16:20:53;11;11;
70915;PMS5003;58557;50.982;-3.222;2022-09-01T16:23:15;9;9;
70915;PMS5003;58557;50.982;-3.222;2022-09-01T16:25:40;12;12;
70915;PMS5003;58557;50.982;-3.222;2022-09-01T16:28:06;11;9;
70915;PMS5003;58557;50.982;-3.222;2022-09-01T16:30:31;14;12;
70915;PMS5003;58557;50.982;-3.222;2022-09-01T16:33:02;11;9;
70915;PMS5003;58557;50.982;-3.222;2022-09-01T16:35:23;10;8;
70915;PMS5003;58557;50.982;-3.222;2022-09-01T16:37:50;11;10;
70915;PMS5003;58557;50.982;-3.222;2022-09-01T16:40:17;10;10;
70915;PMS5003;58557;50.982;-3.222;2022-09-01T16:42:45;8;8;
70915;PMS5003;58557;50.982;-3.222;2022-09-01T16:45:06;16;15;
70915;PMS5003;58557;50.982;-3.222;2022-09-01T16:47:33;11;10;
70915;PMS5003;58557;50.982;-3.222;2022-09-01T16:49:56;10;10;
70915;PMS5003;58557;50.982;-3.222;2022-09-01T16:52:21;10;8;
70915;PMS5003;58557;50.982;-3.222;2022-09-01T16:54:56;7;7;
70915;PMS5003;58557;50.982;-3.222;2022-09-01T16:57:14;7;7;
70915;PMS5003;58557;50.982;-3.222;2022-09-01T16:59:38;9;7;